sensor_id;sensor_type;location;lat;lon;timestamp;P1;durP1;ratioP1;P2;durP2;ratioP2
62123;SDS011;48110;47.532;19.078;2022-07-05T00:01:52;2.92;;;1.65;;
62123;SDS011;48110;47.532;19.078;2022-07-05T00:04:55;3.85;;;1.48;;
62123;SDS011;48110;47.532;19.078;2022-07-05T00:07:57;5.62;;;1.55;;
62123;SDS011;48110;47.532;19.078;2022-07-05T00:11:00;3.97;;;1.40;;
62123;SDS011;48110;47.532;19.078;2022-07-05T00:14:03;1.48;;;1.30;;
62123;SDS011;48110;47.532;19.078;2022-07-05T00:17:06;6.78;;;1.67;;
62123;SDS011;48110;47.532;19.078;2022-07-05T00:20:08;2.50;;;1.30;;
62123;SDS011;48110;47.532;19.078;2022-07-05T00:23:12;3.15;;;1.50;;
62123;SDS011;48110;47.532;19.078;2022-07-05T00:26:14;2.35;;;1.20;;
62123;SDS011;48110;47.532;19.078;2022-07-05T00:29:17;4.75;;;1.40;;
62123;SDS011;48110;47.532;19.078;2022-07-05T00:32:20;2.35;;;1.30;;
62123;SDS011;48110;47.532;19.078;2022-07-05T00:35:22;3.40;;;1.30;;
62123;SDS011;48110;47.532;19.078;2022-07-05T00:38:25;5.32;;;1.35;;
62123;SDS011;48110;47.532;19.078;2022-07-05T00:41:29;3.70;;;1.45;;
62123;SDS011;48110;47.532;19.078;2022-07-05T00:44:33;3.53;;;1.25;;
62123;SDS011;48110;47.532;19.078;2022-07-05T00:47:37;2.40;;;1.40;;
62123;SDS011;48110;47.532;19.078;2022-07-05T00:50:41;1.95;;;1.20;;
62123;SDS011;48110;47.532;19.078;2022-07-05T00:53:47;2.83;;;1.40;;
62123;SDS011;48110;47.532;19.078;2022-07-05T00:56:50;1.80;;;1.40;;
62123;SDS011;48110;47.532;19.078;2022-07-05T01:00:00;2.55;;;1.27;;
62123;SDS011;48110;47.532;19.078;2022-07-05T01:03:04;4.40;;;1.48;;
62123;SDS011;48110;47.532;19.078;2022-07-05T01:06:09;5.05;;;1.40;;
62123;SDS011;48110;47.532;19.078;2022-07-05T01:09:13;2.20;;;1.25;;
62123;SDS011;48110;47.532;19.078;2022-07-05T01:12:18;3.20;;;1.35;;
62123;SDS011;48110;47.532;19.078;2022-07-05T01:15:21;3.65;;;1.55;;
62123;SDS011;48110;47.532;19.078;2022-07-05T01:18:25;1.77;;;1.20;;
62123;SDS011;48110;47.532;19.078;2022-07-05T01:21:29;1.30;;;1.10;;
62123;SDS011;48110;47.532;19.078;2022-07-05T01:24:33;2.05;;;1.50;;
62123;SDS011;48110;47.532;19.078;2022-07-05T01:27:36;3.03;;;1.40;;
62123;SDS011;48110;47.532;19.078;2022-07-05T01:30:40;3.40;;;1.35;;
62123;SDS011;48110;47.532;19.078;2022-07-05T01:33:43;1.58;;;1.10;;
62123;SDS011;48110;47.532;19.078;2022-07-05T01:36:46;2.28;;;1.10;;
62123;SDS011;48110;47.532;19.078;2022-07-05T01:39:50;1.90;;;1.20;;
62123;SDS011;48110;47.532;19.078;2022-07-05T01:42:53;1.42;;;1.30;;
62123;SDS011;48110;47.532;19.078;2022-07-05T01:45:56;2.20;;;1.12;;
62123;SDS011;48110;47.532;19.078;2022-07-05T01:49:04;1.77;;;1.15;;
62123;SDS011;48110;47.532;19.078;2022-07-05T01:52:10;2.08;;;1.08;;
62123;SDS011;48110;47.532;19.078;2022-07-05T01:55:14;2.10;;;1.30;;
62123;SDS011;48110;47.532;19.078;2022-07-05T01:58:17;3.37;;;1.40;;
62123;SDS011;48110;47.532;19.078;2022-07-05T02:01:36;3.00;;;1.20;;
62123;SDS011;48110;47.532;19.078;2022-07-05T02:04:40;4.78;;;1.30;;
62123;SDS011;48110;47.532;19.078;2022-07-05T02:07:47;5.47;;;1.45;;
62123;SDS011;48110;47.532;19.078;2022-07-05T02:10:51;2.40;;;1.33;;
62123;SDS011;48110;47.532;19.078;2022-07-05T02:13:54;1.40;;;1.20;;
62123;SDS011;48110;47.532;19.078;2022-07-05T02:16:58;3.12;;;1.20;;
62123;SDS011;48110;47.532;19.078;2022-07-05T02:20:01;1.70;;;1.10;;
62123;SDS011;48110;47.532;19.078;2022-07-05T02:23:04;3.25;;;1.10;;
62123;SDS011;48110;47.532;19.078;2022-07-05T02:26:07;1.58;;;1.40;;
62123;SDS011;48110;47.532;19.078;2022-07-05T02:29:10;1.70;;;1.15;;
62123;SDS011;48110;47.532;19.078;2022-07-05T02:32:16;1.40;;;1.10;;
62123;SDS011;48110;47.532;19.078;2022-07-05T02:35:21;2.60;;;1.23;;
62123;SDS011;48110;47.532;19.078;2022-07-05T02:38:24;1.40;;;0.95;;
62123;SDS011;48110;47.532;19.078;2022-07-05T02:41:30;1.70;;;1.10;;
62123;SDS011;48110;47.532;19.078;2022-07-05T02:44:34;1.48;;;1.10;;
62123;SDS011;48110;47.532;19.078;2022-07-05T02:47:39;2.47;;;1.20;;
62123;SDS011;48110;47.532;19.078;2022-07-05T02:50:41;2.22;;;1.12;;
62123;SDS011;48110;47.532;19.078;2022-07-05T02:53:44;2.05;;;1.30;;
62123;SDS011;48110;47.532;19.078;2022-07-05T02:56:47;2.37;;;1.20;;
62123;SDS011;48110;47.532;19.078;2022-07-05T02:59:52;2.40;;;1.17;;
62123;SDS011;48110;47.532;19.078;2022-07-05T03:02:56;2.08;;;1.37;;
62123;SDS011;48110;47.532;19.078;2022-07-05T03:05:59;4.45;;;1.27;;
62123;SDS011;48110;47.532;19.078;2022-07-05T03:09:02;4.43;;;1.37;;
62123;SDS011;48110;47.532;19.078;2022-07-05T03:12:05;2.15;;;1.33;;
62123;SDS011;48110;47.532;19.078;2022-07-05T03:15:10;1.10;;;1.00;;
62123;SDS011;48110;47.532;19.078;2022-07-05T03:18:13;2.47;;;1.30;;
62123;SDS011;48110;47.532;19.078;2022-07-05T03:21:16;2.70;;;1.05;;
62123;SDS011;48110;47.532;19.078;2022-07-05T03:24:19;2.50;;;1.27;;
62123;SDS011;48110;47.532;19.078;2022-07-05T03:27:23;2.35;;;1.25;;
62123;SDS011;48110;47.532;19.078;2022-07-05T03:30:27;1.25;;;1.10;;
62123;SDS011;48110;47.532;19.078;2022-07-05T03:33:31;1.50;;;1.00;;
62123;SDS011;48110;47.532;19.078;2022-07-05T03:36:33;2.15;;;1.33;;
62123;SDS011;48110;47.532;19.078;2022-07-05T03:39:37;3.03;;;1.10;;
62123;SDS011;48110;47.532;19.078;2022-07-05T03:42:42;1.30;;;1.10;;
62123;SDS011;48110;47.532;19.078;2022-07-05T03:45:45;3.60;;;1.30;;
62123;SDS011;48110;47.532;19.078;2022-07-05T03:48:48;2.92;;;1.25;;
62123;SDS011;48110;47.532;19.078;2022-07-05T03:51:51;2.35;;;1.17;;
62123;SDS011;48110;47.532;19.078;2022-07-05T03:54:56;3.15;;;1.33;;
62123;SDS011;48110;47.532;19.078;2022-07-05T03:58:02;4.85;;;1.23;;
62123;SDS011;48110;47.532;19.078;2022-07-05T04:01:05;1.52;;;1.12;;
62123;SDS011;48110;47.532;19.078;2022-07-05T04:04:08;2.03;;;1.42;;
62123;SDS011;48110;47.532;19.078;2022-07-05T04:07:11;2.97;;;1.20;;
62123;SDS011;48110;47.532;19.078;2022-07-05T04:10:15;2.58;;;1.25;;
62123;SDS011;48110;47.532;19.078;2022-07-05T04:13:18;5.00;;;1.60;;
62123;SDS011;48110;47.532;19.078;2022-07-05T04:16:23;2.42;;;1.40;;
62123;SDS011;48110;47.532;19.078;2022-07-05T04:19:25;3.12;;;1.37;;
62123;SDS011;48110;47.532;19.078;2022-07-05T04:22:29;2.00;;;1.10;;
62123;SDS011;48110;47.532;19.078;2022-07-05T04:25:31;3.55;;;1.10;;
62123;SDS011;48110;47.532;19.078;2022-07-05T04:28:35;1.98;;;1.20;;
62123;SDS011;48110;47.532;19.078;2022-07-05T04:31:38;2.92;;;1.40;;
62123;SDS011;48110;47.532;19.078;2022-07-05T04:34:42;3.95;;;1.30;;
62123;SDS011;48110;47.532;19.078;2022-07-05T04:37:45;2.80;;;1.05;;
62123;SDS011;48110;47.532;19.078;2022-07-05T04:40:51;2.37;;;1.15;;
62123;SDS011;48110;47.532;19.078;2022-07-05T04:43:54;1.87;;;1.25;;
62123;SDS011;48110;47.532;19.078;2022-07-05T04:46:58;4.00;;;1.50;;
62123;SDS011;48110;47.532;19.078;2022-07-05T04:50:01;2.15;;;1.33;;
62123;SDS011;48110;47.532;19.078;2022-07-05T04:53:05;1.62;;;1.23;;
62123;SDS011;48110;47.532;19.078;2022-07-05T04:56:08;3.53;;;1.23;;
62123;SDS011;48110;47.532;19.078;2022-07-05T04:59:11;1.87;;;1.35;;
62123;SDS011;48110;47.532;19.078;2022-07-05T05:02:13;1.85;;;1.10;;
62123;SDS011;48110;47.532;19.078;2022-07-05T05:05:18;6.93;;;1.33;;
62123;SDS011;48110;47.532;19.078;2022-07-05T05:08:22;5.35;;;1.40;;
62123;SDS011;48110;47.532;19.078;2022-07-05T05:11:25;2.83;;;1.30;;
62123;SDS011;48110;47.532;19.078;2022-07-05T05:14:27;2.45;;;1.30;;
62123;SDS011;48110;47.532;19.078;2022-07-05T05:17:37;1.87;;;1.05;;
62123;SDS011;48110;47.532;19.078;2022-07-05T05:20:41;2.75;;;1.20;;
62123;SDS011;48110;47.532;19.078;2022-07-05T05:23:44;2.62;;;1.35;;
62123;SDS011;48110;47.532;19.078;2022-07-05T05:26:46;5.75;;;1.60;;
62123;SDS011;48110;47.532;19.078;2022-07-05T05:29:49;8.40;;;1.37;;
62123;SDS011;48110;47.532;19.078;2022-07-05T05:32:52;7.32;;;1.40;;
62123;SDS011;48110;47.532;19.078;2022-07-05T05:35:55;2.75;;;1.30;;
62123;SDS011;48110;47.532;19.078;2022-07-05T05:38:58;5.85;;;1.70;;
62123;SDS011;48110;47.532;19.078;2022-07-05T05:42:01;3.70;;;1.50;;
62123;SDS011;48110;47.532;19.078;2022-07-05T05:45:03;2.85;;;1.30;;
62123;SDS011;48110;47.532;19.078;2022-07-05T05:48:06;4.47;;;1.40;;
62123;SDS011;48110;47.532;19.078;2022-07-05T05:51:09;4.87;;;1.80;;
62123;SDS011;48110;47.532;19.078;2022-07-05T05:54:12;2.17;;;1.20;;
62123;SDS011;48110;47.532;19.078;2022-07-05T05:57:17;2.90;;;1.40;;
62123;SDS011;48110;47.532;19.078;2022-07-05T06:00:20;5.03;;;1.33;;
62123;SDS011;48110;47.532;19.078;2022-07-05T06:03:26;2.85;;;1.40;;
62123;SDS011;48110;47.532;19.078;2022-07-05T06:06:29;5.12;;;1.12;;
62123;SDS011;48110;47.532;19.078;2022-07-05T06:09:32;10.23;;;1.30;;
62123;SDS011;48110;47.532;19.078;2022-07-05T06:12:35;5.05;;;1.40;;
62123;SDS011;48110;47.532;19.078;2022-07-05T06:15:38;2.75;;;1.23;;
62123;SDS011;48110;47.532;19.078;2022-07-05T06:18:42;1.52;;;1.10;;
62123;SDS011;48110;47.532;19.078;2022-07-05T06:21:44;4.32;;;1.40;;
62123;SDS011;48110;47.532;19.078;2022-07-05T06:24:47;1.55;;;1.15;;
62123;SDS011;48110;47.532;19.078;2022-07-05T06:28:10;4.75;;;1.40;;
62123;SDS011;48110;47.532;19.078;2022-07-05T06:31:13;3.17;;;1.17;;
62123;SDS011;48110;47.532;19.078;2022-07-05T06:34:16;3.47;;;1.23;;
62123;SDS011;48110;47.532;19.078;2022-07-05T06:37:18;2.22;;;1.08;;
62123;SDS011;48110;47.532;19.078;2022-07-05T06:40:30;3.17;;;1.05;;
62123;SDS011;48110;47.532;19.078;2022-07-05T06:43:34;1.95;;;1.00;;
62123;SDS011;48110;47.532;19.078;2022-07-05T06:46:43;2.83;;;1.40;;
62123;SDS011;48110;47.532;19.078;2022-07-05T06:49:46;2.90;;;1.10;;
62123;SDS011;48110;47.532;19.078;2022-07-05T06:52:51;6.30;;;1.10;;
62123;SDS011;48110;47.532;19.078;2022-07-05T06:55:54;5.18;;;1.42;;
62123;SDS011;48110;47.532;19.078;2022-07-05T06:59:00;2.50;;;1.00;;
62123;SDS011;48110;47.532;19.078;2022-07-05T07:02:10;2.50;;;1.00;;
62123;SDS011;48110;47.532;19.078;2022-07-05T07:05:29;1.62;;;0.90;;
62123;SDS011;48110;47.532;19.078;2022-07-05T07:08:51;2.00;;;1.02;;
62123;SDS011;48110;47.532;19.078;2022-07-05T07:12:12;6.35;;;1.30;;
62123;SDS011;48110;47.532;19.078;2022-07-05T07:15:14;3.00;;;1.02;;
62123;SDS011;48110;47.532;19.078;2022-07-05T07:18:17;8.00;;;0.90;;
62123;SDS011;48110;47.532;19.078;2022-07-05T07:21:20;3.10;;;0.90;;
62123;SDS011;48110;47.532;19.078;2022-07-05T07:24:22;1.73;;;0.98;;
62123;SDS011;48110;47.532;19.078;2022-07-05T07:27:26;3.05;;;0.90;;
62123;SDS011;48110;47.532;19.078;2022-07-05T07:30:30;4.80;;;0.90;;
62123;SDS011;48110;47.532;19.078;2022-07-05T07:33:32;2.67;;;0.90;;
62123;SDS011;48110;47.532;19.078;2022-07-05T07:36:46;1.75;;;1.08;;
62123;SDS011;48110;47.532;19.078;2022-07-05T07:39:49;4.57;;;0.90;;
62123;SDS011;48110;47.532;19.078;2022-07-05T07:42:52;4.78;;;0.85;;
62123;SDS011;48110;47.532;19.078;2022-07-05T07:45:56;3.05;;;0.73;;
62123;SDS011;48110;47.532;19.078;2022-07-05T07:49:01;2.80;;;1.00;;
62123;SDS011;48110;47.532;19.078;2022-07-05T07:52:04;1.85;;;0.80;;
62123;SDS011;48110;47.532;19.078;2022-07-05T07:55:08;3.58;;;0.98;;
62123;SDS011;48110;47.532;19.078;2022-07-05T07:58:11;1.40;;;1.05;;
62123;SDS011;48110;47.532;19.078;2022-07-05T08:01:14;1.15;;;0.88;;
62123;SDS011;48110;47.532;19.078;2022-07-05T08:04:17;3.65;;;1.10;;
62123;SDS011;48110;47.532;19.078;2022-07-05T08:07:19;2.67;;;1.02;;
62123;SDS011;48110;47.532;19.078;2022-07-05T08:10:23;2.60;;;0.98;;
62123;SDS011;48110;47.532;19.078;2022-07-05T08:13:25;1.80;;;0.80;;
62123;SDS011;48110;47.532;19.078;2022-07-05T08:16:28;3.55;;;1.05;;
62123;SDS011;48110;47.532;19.078;2022-07-05T08:19:31;4.10;;;1.10;;
62123;SDS011;48110;47.532;19.078;2022-07-05T08:22:54;1.83;;;1.00;;
62123;SDS011;48110;47.532;19.078;2022-07-05T08:25:56;2.80;;;1.00;;
62123;SDS011;48110;47.532;19.078;2022-07-05T08:29:00;3.35;;;1.40;;
62123;SDS011;48110;47.532;19.078;2022-07-05T08:32:11;3.00;;;1.20;;
62123;SDS011;48110;47.532;19.078;2022-07-05T08:35:15;2.40;;;1.00;;
62123;SDS011;48110;47.532;19.078;2022-07-05T08:38:18;3.55;;;1.45;;
62123;SDS011;48110;47.532;19.078;2022-07-05T08:41:21;3.22;;;0.98;;
62123;SDS011;48110;47.532;19.078;2022-07-05T08:44:26;5.57;;;1.15;;
62123;SDS011;48110;47.532;19.078;2022-07-05T08:47:30;2.28;;;1.00;;
62123;SDS011;48110;47.532;19.078;2022-07-05T08:50:35;2.08;;;1.10;;
62123;SDS011;48110;47.532;19.078;2022-07-05T08:53:40;1.98;;;1.00;;
62123;SDS011;48110;47.532;19.078;2022-07-05T08:56:43;1.10;;;0.98;;
62123;SDS011;48110;47.532;19.078;2022-07-05T09:00:07;2.60;;;1.00;;
62123;SDS011;48110;47.532;19.078;2022-07-05T09:03:10;1.85;;;1.08;;
62123;SDS011;48110;47.532;19.078;2022-07-05T09:06:16;1.15;;;0.88;;
62123;SDS011;48110;47.532;19.078;2022-07-05T09:09:20;2.10;;;1.00;;
62123;SDS011;48110;47.532;19.078;2022-07-05T09:12:24;3.47;;;0.98;;
62123;SDS011;48110;47.532;19.078;2022-07-05T09:15:28;2.53;;;0.90;;
62123;SDS011;48110;47.532;19.078;2022-07-05T09:22:04;1.20;;;0.93;;
62123;SDS011;48110;47.532;19.078;2022-07-05T09:25:18;2.97;;;1.40;;
62123;SDS011;48110;47.532;19.078;2022-07-05T09:28:25;3.83;;;1.12;;
62123;SDS011;48110;47.532;19.078;2022-07-05T09:31:30;3.03;;;1.10;;
62123;SDS011;48110;47.532;19.078;2022-07-05T09:34:36;2.05;;;1.50;;
62123;SDS011;48110;47.532;19.078;2022-07-05T09:37:42;2.75;;;1.10;;
62123;SDS011;48110;47.532;19.078;2022-07-05T09:40:53;3.55;;;1.30;;
62123;SDS011;48110;47.532;19.078;2022-07-05T09:43:58;4.72;;;1.10;;
62123;SDS011;48110;47.532;19.078;2022-07-05T09:47:08;2.20;;;1.20;;
62123;SDS011;48110;47.532;19.078;2022-07-05T09:50:12;4.68;;;1.50;;
62123;SDS011;48110;47.532;19.078;2022-07-05T09:53:17;3.45;;;1.30;;
62123;SDS011;48110;47.532;19.078;2022-07-05T09:56:24;3.72;;;1.27;;
62123;SDS011;48110;47.532;19.078;2022-07-05T09:59:32;4.28;;;1.30;;
62123;SDS011;48110;47.532;19.078;2022-07-05T10:02:37;2.03;;;1.30;;
62123;SDS011;48110;47.532;19.078;2022-07-05T10:05:51;1.92;;;1.27;;
62123;SDS011;48110;47.532;19.078;2022-07-05T10:09:01;3.35;;;1.35;;
62123;SDS011;48110;47.532;19.078;2022-07-05T10:12:04;3.37;;;1.30;;
62123;SDS011;48110;47.532;19.078;2022-07-05T10:15:13;1.33;;;1.10;;
62123;SDS011;48110;47.532;19.078;2022-07-05T10:18:21;2.08;;;1.30;;
62123;SDS011;48110;47.532;19.078;2022-07-05T10:21:33;1.55;;;1.30;;
62123;SDS011;48110;47.532;19.078;2022-07-05T10:24:59;1.98;;;1.50;;
62123;SDS011;48110;47.532;19.078;2022-07-05T10:29:59;9.27;;;1.90;;
62123;SDS011;48110;47.532;19.078;2022-07-05T10:33:04;3.40;;;1.70;;
62123;SDS011;48110;47.532;19.078;2022-07-05T10:36:11;6.37;;;2.00;;
62123;SDS011;48110;47.532;19.078;2022-07-05T10:39:15;2.78;;;2.22;;
62123;SDS011;48110;47.532;19.078;2022-07-05T10:42:21;8.98;;;3.00;;
62123;SDS011;48110;47.532;19.078;2022-07-05T10:45:37;4.60;;;2.40;;
62123;SDS011;48110;47.532;19.078;2022-07-05T10:48:43;2.37;;;2.00;;
62123;SDS011;48110;47.532;19.078;2022-07-05T10:51:46;8.93;;;2.35;;
62123;SDS011;48110;47.532;19.078;2022-07-05T10:58:21;3.47;;;1.90;;
62123;SDS011;48110;47.532;19.078;2022-07-05T11:04:28;5.18;;;1.80;;
62123;SDS011;48110;47.532;19.078;2022-07-05T11:11:12;4.37;;;1.80;;
62123;SDS011;48110;47.532;19.078;2022-07-05T11:17:24;1.98;;;1.50;;
62123;SDS011;48110;47.532;19.078;2022-07-05T11:20:52;2.40;;;1.20;;
62123;SDS011;48110;47.532;19.078;2022-07-05T11:24:25;3.62;;;1.20;;
62123;SDS011;48110;47.532;19.078;2022-07-05T11:27:28;1.58;;;1.10;;
62123;SDS011;48110;47.532;19.078;2022-07-05T11:33:52;2.40;;;1.20;;
62123;SDS011;48110;47.532;19.078;2022-07-05T11:40:31;2.75;;;1.40;;
62123;SDS011;48110;47.532;19.078;2022-07-05T11:43:40;2.10;;;1.30;;
62123;SDS011;48110;47.532;19.078;2022-07-05T11:46:44;3.00;;;1.25;;
62123;SDS011;48110;47.532;19.078;2022-07-05T11:49:54;3.37;;;1.52;;
62123;SDS011;48110;47.532;19.078;2022-07-05T11:53:00;5.12;;;2.10;;
62123;SDS011;48110;47.532;19.078;2022-07-05T11:56:07;5.50;;;1.90;;
62123;SDS011;48110;47.532;19.078;2022-07-05T11:59:16;3.90;;;1.98;;
62123;SDS011;48110;47.532;19.078;2022-07-05T12:02:23;2.95;;;1.90;;
62123;SDS011;48110;47.532;19.078;2022-07-05T12:05:29;3.70;;;2.10;;
62123;SDS011;48110;47.532;19.078;2022-07-05T12:08:34;2.80;;;2.33;;
62123;SDS011;48110;47.532;19.078;2022-07-05T12:11:36;2.40;;;1.90;;
62123;SDS011;48110;47.532;19.078;2022-07-05T12:14:58;5.28;;;2.47;;
62123;SDS011;48110;47.532;19.078;2022-07-05T12:18:01;4.45;;;3.00;;
62123;SDS011;48110;47.532;19.078;2022-07-05T12:21:11;5.85;;;2.62;;
62123;SDS011;48110;47.532;19.078;2022-07-05T12:24:15;4.10;;;2.05;;
62123;SDS011;48110;47.532;19.078;2022-07-05T12:27:18;3.83;;;2.30;;
62123;SDS011;48110;47.532;19.078;2022-07-05T12:30:29;7.15;;;2.20;;
62123;SDS011;48110;47.532;19.078;2022-07-05T12:33:33;3.37;;;1.83;;
62123;SDS011;48110;47.532;19.078;2022-07-05T12:36:35;2.67;;;1.87;;
62123;SDS011;48110;47.532;19.078;2022-07-05T12:39:44;2.60;;;1.65;;
62123;SDS011;48110;47.532;19.078;2022-07-05T12:42:47;2.65;;;1.80;;
62123;SDS011;48110;47.532;19.078;2022-07-05T12:46:07;2.97;;;1.95;;
62123;SDS011;48110;47.532;19.078;2022-07-05T12:49:11;3.90;;;1.70;;
62123;SDS011;48110;47.532;19.078;2022-07-05T12:52:14;3.10;;;1.60;;
62123;SDS011;48110;47.532;19.078;2022-07-05T12:55:17;5.03;;;1.58;;
62123;SDS011;48110;47.532;19.078;2022-07-05T12:58:48;2.08;;;1.55;;
62123;SDS011;48110;47.532;19.078;2022-07-05T13:01:52;1.60;;;1.37;;
62123;SDS011;48110;47.532;19.078;2022-07-05T13:04:56;1.80;;;1.30;;
62123;SDS011;48110;47.532;19.078;2022-07-05T13:07:59;2.20;;;1.42;;
62123;SDS011;48110;47.532;19.078;2022-07-05T13:11:01;1.58;;;1.25;;
62123;SDS011;48110;47.532;19.078;2022-07-05T13:14:04;1.60;;;1.17;;
62123;SDS011;48110;47.532;19.078;2022-07-05T13:17:08;2.17;;;1.30;;
62123;SDS011;48110;47.532;19.078;2022-07-05T13:20:15;3.67;;;1.52;;
62123;SDS011;48110;47.532;19.078;2022-07-05T13:23:20;1.80;;;1.10;;
62123;SDS011;48110;47.532;19.078;2022-07-05T13:26:23;1.75;;;1.20;;
62123;SDS011;48110;47.532;19.078;2022-07-05T13:29:26;4.05;;;1.30;;
62123;SDS011;48110;47.532;19.078;2022-07-05T13:32:29;1.60;;;1.25;;
62123;SDS011;48110;47.532;19.078;2022-07-05T13:35:31;2.78;;;1.40;;
62123;SDS011;48110;47.532;19.078;2022-07-05T13:38:34;2.08;;;1.60;;
62123;SDS011;48110;47.532;19.078;2022-07-05T13:41:37;3.28;;;1.65;;
62123;SDS011;48110;47.532;19.078;2022-07-05T13:44:40;2.67;;;1.58;;
62123;SDS011;48110;47.532;19.078;2022-07-05T13:47:42;2.67;;;1.48;;
62123;SDS011;48110;47.532;19.078;2022-07-05T13:50:45;1.77;;;1.27;;
62123;SDS011;48110;47.532;19.078;2022-07-05T13:53:48;3.15;;;1.37;;
62123;SDS011;48110;47.532;19.078;2022-07-05T13:56:50;3.28;;;2.08;;
62123;SDS011;48110;47.532;19.078;2022-07-05T13:59:54;1.85;;;1.48;;
62123;SDS011;48110;47.532;19.078;2022-07-05T14:02:57;3.03;;;1.40;;
62123;SDS011;48110;47.532;19.078;2022-07-05T14:06:07;1.67;;;1.33;;
62123;SDS011;48110;47.532;19.078;2022-07-05T14:09:09;2.55;;;1.15;;
62123;SDS011;48110;47.532;19.078;2022-07-05T14:12:12;1.60;;;1.40;;
62123;SDS011;48110;47.532;19.078;2022-07-05T14:15:15;1.83;;;1.30;;
62123;SDS011;48110;47.532;19.078;2022-07-05T14:18:19;1.77;;;1.20;;
62123;SDS011;48110;47.532;19.078;2022-07-05T14:21:23;2.17;;;1.40;;
62123;SDS011;48110;47.532;19.078;2022-07-05T14:24:39;1.75;;;1.10;;
62123;SDS011;48110;47.532;19.078;2022-07-05T14:27:41;1.87;;;1.35;;
62123;SDS011;48110;47.532;19.078;2022-07-05T14:30:45;1.52;;;1.12;;
62123;SDS011;48110;47.532;19.078;2022-07-05T14:33:49;1.58;;;1.17;;
62123;SDS011;48110;47.532;19.078;2022-07-05T14:36:52;2.22;;;1.20;;
62123;SDS011;48110;47.532;19.078;2022-07-05T14:39:54;1.30;;;1.20;;
62123;SDS011;48110;47.532;19.078;2022-07-05T14:42:58;2.10;;;1.37;;
62123;SDS011;48110;47.532;19.078;2022-07-05T14:46:01;1.52;;;1.08;;
62123;SDS011;48110;47.532;19.078;2022-07-05T14:49:04;2.97;;;1.30;;
62123;SDS011;48110;47.532;19.078;2022-07-05T14:52:07;2.47;;;1.30;;
62123;SDS011;48110;47.532;19.078;2022-07-05T14:55:10;2.22;;;1.20;;
62123;SDS011;48110;47.532;19.078;2022-07-05T14:58:12;1.23;;;1.12;;
62123;SDS011;48110;47.532;19.078;2022-07-05T15:01:18;1.75;;;1.40;;
62123;SDS011;48110;47.532;19.078;2022-07-05T15:04:21;2.85;;;1.42;;
62123;SDS011;48110;47.532;19.078;2022-07-05T15:07:23;3.00;;;1.83;;
62123;SDS011;48110;47.532;19.078;2022-07-05T15:10:26;3.30;;;1.83;;
62123;SDS011;48110;47.532;19.078;2022-07-05T15:13:29;2.28;;;1.60;;
62123;SDS011;48110;47.532;19.078;2022-07-05T15:16:31;2.60;;;1.40;;
62123;SDS011;48110;47.532;19.078;2022-07-05T15:19:34;2.22;;;1.70;;
62123;SDS011;48110;47.532;19.078;2022-07-05T15:22:37;3.40;;;1.98;;
62123;SDS011;48110;47.532;19.078;2022-07-05T15:25:40;2.50;;;1.80;;
62123;SDS011;48110;47.532;19.078;2022-07-05T15:28:42;2.55;;;1.70;;
62123;SDS011;48110;47.532;19.078;2022-07-05T15:31:45;2.10;;;1.80;;
62123;SDS011;48110;47.532;19.078;2022-07-05T15:34:48;3.33;;;1.83;;
62123;SDS011;48110;47.532;19.078;2022-07-05T15:37:53;3.78;;;1.87;;
62123;SDS011;48110;47.532;19.078;2022-07-05T15:40:56;3.22;;;1.50;;
62123;SDS011;48110;47.532;19.078;2022-07-05T15:43:59;2.10;;;1.70;;
62123;SDS011;48110;47.532;19.078;2022-07-05T15:47:02;4.03;;;1.67;;
62123;SDS011;48110;47.532;19.078;2022-07-05T15:50:06;1.50;;;1.40;;
62123;SDS011;48110;47.532;19.078;2022-07-05T15:53:12;2.40;;;1.50;;
62123;SDS011;48110;47.532;19.078;2022-07-05T15:56:15;1.73;;;1.48;;
62123;SDS011;48110;47.532;19.078;2022-07-05T15:59:18;2.60;;;1.40;;
62123;SDS011;48110;47.532;19.078;2022-07-05T16:02:21;1.40;;;1.10;;
62123;SDS011;48110;47.532;19.078;2022-07-05T16:05:24;3.60;;;1.30;;
62123;SDS011;48110;47.532;19.078;2022-07-05T16:08:26;1.70;;;1.12;;
62123;SDS011;48110;47.532;19.078;2022-07-05T16:11:29;1.40;;;1.30;;
62123;SDS011;48110;47.532;19.078;2022-07-05T16:14:32;3.67;;;1.20;;
62123;SDS011;48110;47.532;19.078;2022-07-05T16:17:35;1.58;;;1.23;;
62123;SDS011;48110;47.532;19.078;2022-07-05T16:20:41;1.40;;;1.30;;
62123;SDS011;48110;47.532;19.078;2022-07-05T16:23:45;2.87;;;1.35;;
62123;SDS011;48110;47.532;19.078;2022-07-05T16:26:49;1.70;;;0.90;;
62123;SDS011;48110;47.532;19.078;2022-07-05T16:29:59;2.67;;;1.20;;
62123;SDS011;48110;47.532;19.078;2022-07-05T16:33:02;2.10;;;1.25;;
62123;SDS011;48110;47.532;19.078;2022-07-05T16:36:06;1.92;;;1.50;;
62123;SDS011;48110;47.532;19.078;2022-07-05T16:39:10;1.27;;;1.10;;
62123;SDS011;48110;47.532;19.078;2022-07-05T16:42:14;3.30;;;1.37;;
62123;SDS011;48110;47.532;19.078;2022-07-05T16:45:16;1.35;;;1.25;;
62123;SDS011;48110;47.532;19.078;2022-07-05T16:48:19;1.20;;;1.05;;
62123;SDS011;48110;47.532;19.078;2022-07-05T16:51:25;2.10;;;1.27;;
62123;SDS011;48110;47.532;19.078;2022-07-05T16:54:28;2.70;;;1.33;;
62123;SDS011;48110;47.532;19.078;2022-07-05T16:57:30;4.30;;;1.30;;
62123;SDS011;48110;47.532;19.078;2022-07-05T17:00:33;1.52;;;1.20;;
62123;SDS011;48110;47.532;19.078;2022-07-05T17:03:36;1.98;;;1.23;;
62123;SDS011;48110;47.532;19.078;2022-07-05T17:06:40;2.35;;;1.10;;
62123;SDS011;48110;47.532;19.078;2022-07-05T17:09:42;2.33;;;1.55;;
62123;SDS011;48110;47.532;19.078;2022-07-05T17:12:45;1.92;;;1.50;;
62123;SDS011;48110;47.532;19.078;2022-07-05T17:15:48;2.15;;;1.35;;
62123;SDS011;48110;47.532;19.078;2022-07-05T17:18:51;1.85;;;1.42;;
62123;SDS011;48110;47.532;19.078;2022-07-05T17:21:54;1.83;;;1.30;;
62123;SDS011;48110;47.532;19.078;2022-07-05T17:24:57;1.83;;;1.40;;
62123;SDS011;48110;47.532;19.078;2022-07-05T17:27:59;2.60;;;1.20;;
62123;SDS011;48110;47.532;19.078;2022-07-05T17:31:02;1.65;;;1.23;;
62123;SDS011;48110;47.532;19.078;2022-07-05T17:34:05;3.40;;;1.40;;
62123;SDS011;48110;47.532;19.078;2022-07-05T17:37:08;1.20;;;1.10;;
62123;SDS011;48110;47.532;19.078;2022-07-05T17:40:10;1.77;;;1.55;;
62123;SDS011;48110;47.532;19.078;2022-07-05T17:43:14;1.67;;;1.50;;
62123;SDS011;48110;47.532;19.078;2022-07-05T17:46:20;1.83;;;1.23;;
62123;SDS011;48110;47.532;19.078;2022-07-05T17:49:24;2.22;;;1.60;;
62123;SDS011;48110;47.532;19.078;2022-07-05T17:52:27;1.95;;;1.35;;
62123;SDS011;48110;47.532;19.078;2022-07-05T17:55:30;1.42;;;1.30;;
62123;SDS011;48110;47.532;19.078;2022-07-05T17:58:32;1.62;;;1.52;;
62123;SDS011;48110;47.532;19.078;2022-07-05T18:01:35;2.00;;;1.48;;
62123;SDS011;48110;47.532;19.078;2022-07-05T18:04:38;2.03;;;1.40;;
62123;SDS011;48110;47.532;19.078;2022-07-05T18:07:41;2.20;;;1.73;;
62123;SDS011;48110;47.532;19.078;2022-07-05T18:10:44;4.10;;;1.80;;
62123;SDS011;48110;47.532;19.078;2022-07-05T18:13:48;2.12;;;1.80;;
62123;SDS011;48110;47.532;19.078;2022-07-05T18:16:50;3.35;;;2.30;;
62123;SDS011;48110;47.532;19.078;2022-07-05T18:19:53;2.03;;;1.65;;
62123;SDS011;48110;47.532;19.078;2022-07-05T18:22:56;2.33;;;1.62;;
62123;SDS011;48110;47.532;19.078;2022-07-05T18:25:59;2.47;;;1.52;;
62123;SDS011;48110;47.532;19.078;2022-07-05T18:29:02;2.17;;;1.50;;
62123;SDS011;48110;47.532;19.078;2022-07-05T18:32:05;2.28;;;1.48;;
62123;SDS011;48110;47.532;19.078;2022-07-05T18:35:08;2.30;;;1.42;;
62123;SDS011;48110;47.532;19.078;2022-07-05T18:38:12;1.70;;;1.60;;
62123;SDS011;48110;47.532;19.078;2022-07-05T18:41:15;2.33;;;1.70;;